< Typhoon 202104 2021 Season Typhoon 202106 >
Typhoon 202105 (CHAMPI)
General InformationTrack Information on Google MapsDetailed Wind InformationForecast History on Google MapsAccess Analytics MapList of All Images || NewsDisaster Info.WeblogTrackbackTyphoon FrontTwiphoonTyphoon Now!Typhoon ImaginationJMA Disaster Info. XMLResourceGoogle EarthGE AnimationAtom FeedGeoJSON
Detalied Best Track (Time Zone = UTC)
Year Month Day Hour Lat. Long. Pressure (hPa) Wind (kt) Class Image Chart
2021 6 20 00 9.9 150.9 1010 0 2 Image Chart
2021 6 20 06 10.1 150.3 1008 0 2 Image Chart
2021 6 20 12 10.6 149.5 1010 0 2 Image Chart
2021 6 20 18 11.1 148.3 1008 0 2 Image Chart
2021 6 21 00 11.6 147.8 1010 0 2 Image Chart
2021 6 21 06 11.8 147.1 1008 0 2 Image Chart
2021 6 21 12 12.1 145.8 1010 0 2 Image Chart
2021 6 21 18 12.6 144.8 1010 0 2 Image Chart
2021 6 22 00 13.4 143.6 1010 0 2 Image Chart
2021 6 22 06 14.3 142.6 1008 0 2 Image Chart
2021 6 22 12 14.6 141.9 1008 0 2 Image Chart
2021 6 22 18 15.3 141.3 1006 0 2 Image Chart
2021 6 23 00 16.1 141.3 1002 35 3 Image Chart
2021 6 23 06 17.1 141.1 1000 40 3 Image Chart
2021 6 23 12 17.7 140.7 998 45 3 Image Chart
2021 6 23 18 17.9 140.2 998 45 3 Image Chart
2021 6 24 00 18.5 140.1 992 50 4 Image Chart
2021 6 24 06 19.0 139.8 992 50 4 Image Chart
2021 6 24 12 19.6 139.7 992 50 4 Image Chart
2021 6 24 18 20.2 139.6 990 55 4 Image Chart
2021 6 25 00 21.0 139.0 985 60 4 Image Chart
2021 6 25 06 21.9 139.1 980 65 5 Image Chart
2021 6 25 12 22.8 139.2 980 65 5 Image Chart
2021 6 25 18 23.6 139.3 985 60 4 Image Chart
2021 6 26 00 24.8 139.8 985 60 4 Image Chart
2021 6 26 06 25.8 140.0 985 60 4 Image Chart
2021 6 26 12 26.9 140.2 992 50 4 Image Chart
2021 6 26 18 28.3 140.8 994 45 3 Image Chart
2021 6 27 00 29.9 141.4 996 40 3 Image Chart
2021 6 27 06 31.8 142.3 998 35 3 Image Chart
2021 6 27 12 34.0 143.8 998 35 3 Image Chart
2021 6 27 18 36.4 145.3 996 0 6 Image Chart
2021 6 28 00 38.2 148.8 994 0 6 Image Chart
2021 6 28 06 39.5 152.0 994 0 6 Image Chart
2021 6 28 12 40.4 155.1 994 0 6 Image Chart
2021 6 28 18 41.1 159.7 996 0 6 Image Chart
Japan Meteorological Agency Best Track Data | Correction Date : 2021-09-09
< Typhoon 202104 2021 Season Typhoon 202106 >

Help